createdAt,value
2024-03-08T00:00:34.229Z,96.40
2024-03-08T00:03:03.872Z,96.50
2024-03-08T00:05:31.591Z,96.20
2024-03-08T00:08:01.866Z,96.10
2024-03-08T00:10:30.211Z,96.40
2024-03-08T00:12:59.264Z,96.60
2024-03-08T00:15:27.209Z,96.50
2024-03-08T00:17:55.298Z,96.60
2024-03-08T00:20:25.390Z,96.50
2024-03-08T00:22:53.704Z,96.90
2024-03-08T00:25:22.585Z,97.00
2024-03-08T00:27:51.443Z,96.90
2024-03-08T00:30:18.968Z,97.10
2024-03-08T00:32:46.443Z,97.40
2024-03-08T00:35:14.189Z,97.30
2024-03-08T00:37:43.261Z,97.10
2024-03-08T00:40:12.520Z,97.00
2024-03-08T00:42:41.292Z,97.00
2024-03-08T00:45:09.430Z,96.80
2024-03-08T00:47:36.888Z,96.60
2024-03-08T00:50:09.281Z,96.50
2024-03-08T00:52:38.356Z,96.90
2024-03-08T00:55:07.064Z,96.80
2024-03-08T00:57:35.334Z,96.80
2024-03-08T01:00:05.718Z,97.00
2024-03-08T01:02:37.713Z,97.00
2024-03-08T01:05:08.832Z,97.20
2024-03-08T01:07:37.494Z,97.20
2024-03-08T01:10:05.862Z,97.40
2024-03-08T01:12:33.534Z,96.90
2024-03-08T01:15:01.056Z,97.00
2024-03-08T01:17:28.633Z,97.30
2024-03-08T01:19:56.203Z,97.20
2024-03-08T01:22:24.116Z,96.70
2024-03-08T01:24:51.453Z,96.30
2024-03-08T01:27:19.809Z,96.00
2024-03-08T01:29:47.636Z,96.20
2024-03-08T01:32:18.605Z,96.30
2024-03-08T01:34:49.431Z,96.70
2024-03-08T01:37:16.935Z,96.70
2024-03-08T01:39:44.614Z,96.90
2024-03-08T01:42:16.875Z,96.90
2024-03-08T01:44:45.237Z,96.30
2024-03-08T01:47:13.216Z,96.50
2024-03-08T01:49:42.503Z,96.80
2024-03-08T01:52:09.961Z,96.60
2024-03-08T01:54:37.612Z,96.50
2024-03-08T01:57:23.291Z,96.50
2024-03-08T01:59:52.133Z,96.50
2024-03-08T02:02:21.318Z,96.60
2024-03-08T02:04:49.023Z,96.30
2024-03-08T02:07:16.457Z,95.80
2024-03-08T02:09:44.426Z,95.90
2024-03-08T02:12:12.393Z,95.90
2024-03-08T02:14:41.545Z,96.10
2024-03-08T02:17:09.058Z,96.40
2024-03-08T02:19:37.692Z,96.50
2024-03-08T02:22:05.922Z,96.50
2024-03-08T02:24:34.804Z,96.40
2024-03-08T02:27:02.777Z,96.40
2024-03-08T02:29:30.559Z,96.30
2024-03-08T02:31:58.647Z,96.10
2024-03-08T02:34:25.911Z,96.10
2024-03-08T02:36:53.173Z,96.00
2024-03-08T02:39:21.322Z,95.80
2024-03-08T02:41:48.843Z,95.80
2024-03-08T02:44:16.301Z,95.70
2024-03-08T02:46:43.579Z,95.70
2024-03-08T02:49:13.183Z,95.80
2024-03-08T02:51:40.428Z,96.00
2024-03-08T02:54:07.995Z,95.50
2024-03-08T02:56:36.464Z,95.40
2024-03-08T02:59:04.252Z,95.50
2024-03-08T03:01:33.349Z,95.60
2024-03-08T03:04:01.264Z,95.50
2024-03-08T03:06:28.612Z,95.50
2024-03-08T03:08:55.966Z,95.20
2024-03-08T03:11:23.419Z,95.20
2024-03-08T03:13:50.970Z,95.40
2024-03-08T03:16:21.917Z,95.20
2024-03-08T03:18:49.371Z,95.10
2024-03-08T03:21:17.362Z,95.80
2024-03-08T03:23:44.677Z,96.20
2024-03-08T03:26:14.929Z,96.30
2024-03-08T03:28:42.282Z,96.20
2024-03-08T03:31:15.664Z,96.20
2024-03-08T03:33:43.403Z,96.10
2024-03-08T03:36:11.707Z,96.20
2024-03-08T03:38:39.213Z,96.00
2024-03-08T03:41:11.820Z,95.80
2024-03-08T03:43:40.311Z,95.90
2024-03-08T03:46:08.953Z,96.20
2024-03-08T03:48:36.353Z,96.10
2024-03-08T03:51:03.999Z,96.20
2024-03-08T03:53:31.447Z,96.40
2024-03-08T03:55:59.128Z,96.60
2024-03-08T03:58:28.814Z,96.70
2024-03-08T04:00:56.193Z,96.90
2024-03-08T04:03:23.553Z,97.20
2024-03-08T04:05:50.944Z,97.40
2024-03-08T04:08:18.375Z,97.40
2024-03-08T04:10:45.684Z,97.40
2024-03-08T04:13:14.174Z,97.50
2024-03-08T04:15:41.423Z,97.40
2024-03-08T04:18:08.802Z,97.70
2024-03-08T04:20:36.199Z,97.50
2024-03-08T04:23:04.226Z,97.70
2024-03-08T04:25:32.230Z,97.50
2024-03-08T04:27:59.720Z,97.50
2024-03-08T04:30:29.477Z,97.40
2024-03-08T04:32:57.078Z,97.40
2024-03-08T04:35:24.417Z,97.60
2024-03-08T04:37:52.313Z,97.80
2024-03-08T04:40:20.414Z,98.10
2024-03-08T04:42:47.927Z,98.00
2024-03-08T04:45:15.333Z,98.30
2024-03-08T04:47:42.712Z,98.30
2024-03-08T04:50:10.747Z,98.10
2024-03-08T04:52:38.061Z,98.10
2024-03-08T04:55:06.981Z,98.10
2024-03-08T04:57:34.359Z,97.90
2024-03-08T05:00:03.834Z,97.70
2024-03-08T05:02:31.370Z,97.70
2024-03-08T05:04:58.573Z,98.50
2024-03-08T05:07:25.835Z,99.50
2024-03-08T05:09:53.478Z,99.90
2024-03-08T05:12:21.123Z,99.80
2024-03-08T05:14:51.448Z,99.40
2024-03-08T05:17:19.205Z,99.70
2024-03-08T05:19:46.877Z,99.60
2024-03-08T05:22:15.269Z,99.20
2024-03-08T05:24:42.566Z,99.70
2024-03-08T05:27:09.988Z,99.50
2024-03-08T05:29:37.349Z,99.30
2024-03-08T05:32:05.352Z,99.50
2024-03-08T05:34:32.706Z,99.10
2024-03-08T05:37:01.582Z,98.80
2024-03-08T05:39:29.162Z,98.80
2024-03-08T05:41:57.248Z,99.00
2024-03-08T05:44:24.627Z,99.00
2024-03-08T05:46:52.136Z,99.30
2024-03-08T05:49:19.456Z,99.60
2024-03-08T05:51:49.272Z,99.40
2024-03-08T05:54:19.091Z,99.60
2024-03-08T05:56:49.215Z,99.30
2024-03-08T05:59:16.793Z,98.90
2024-03-08T06:01:44.676Z,99.70
2024-03-08T06:04:15.772Z,99.90
2024-03-08T06:06:42.994Z,99.90
2024-03-08T06:09:13.395Z,99.20
2024-03-08T06:11:41.467Z,98.60
2024-03-08T06:14:09.072Z,98.40
2024-03-08T06:16:37.393Z,98.40
2024-03-08T06:19:05.114Z,98.20
2024-03-08T06:21:33.751Z,98.10
2024-03-08T06:24:01.753Z,98.10
2024-03-08T06:26:30.941Z,97.90
2024-03-08T06:28:59.568Z,98.00
2024-03-08T06:31:27.182Z,98.00
2024-03-08T06:33:57.173Z,98.10
2024-03-08T06:36:25.314Z,97.90
2024-03-08T06:38:53.247Z,97.90
2024-03-08T06:41:21.245Z,98.10
2024-03-08T06:43:50.460Z,97.40
2024-03-08T06:46:17.975Z,98.10
2024-03-08T06:48:47.715Z,97.10
2024-03-08T06:51:16.106Z,97.30
2024-03-08T06:53:43.885Z,97.00
2024-03-08T06:56:12.359Z,97.00
2024-03-08T06:58:40.615Z,96.80
2024-03-08T07:01:15.567Z,96.60
2024-03-08T07:03:46.052Z,96.10
2024-03-08T07:06:16.850Z,95.70
2024-03-08T07:08:47.328Z,95.70
2024-03-08T07:11:17.301Z,95.70
2024-03-08T07:13:44.643Z,95.50
2024-03-08T07:16:13.302Z,95.60
2024-03-08T07:18:45.583Z,95.80
2024-03-08T07:21:13.212Z,96.10
2024-03-08T07:24:10.940Z,96.10
2024-03-08T07:26:39.777Z,96.10
2024-03-08T07:29:07.009Z,96.20
2024-03-08T07:32:01.227Z,96.20
2024-03-08T07:34:28.755Z,96.00
2024-03-08T07:36:57.752Z,96.10
2024-03-08T07:39:25.104Z,95.60
2024-03-08T07:41:54.025Z,95.40
2024-03-08T07:44:21.358Z,95.30
2024-03-08T07:46:48.651Z,95.20
2024-03-08T07:49:16.618Z,95.50
2024-03-08T07:51:45.686Z,95.40
2024-03-08T07:54:13.399Z,95.30
2024-03-08T07:56:40.704Z,94.90
2024-03-08T07:59:08.673Z,94.50
2024-03-08T08:01:36.510Z,94.60
2024-03-08T08:04:07.962Z,94.60
2024-03-08T08:06:36.202Z,94.20
2024-03-08T08:09:03.460Z,94.20
2024-03-08T08:11:30.810Z,94.10
2024-03-08T08:13:58.186Z,93.60
2024-03-08T08:16:27.116Z,93.10
2024-03-08T08:18:54.539Z,92.90
2024-03-08T08:21:23.438Z,92.90
2024-03-08T08:23:50.784Z,92.80
2024-03-08T08:26:18.114Z,92.50
2024-03-08T08:28:47.433Z,92.20
2024-03-08T08:31:14.755Z,92.20
2024-03-08T08:33:42.118Z,91.80
2024-03-08T08:36:09.742Z,91.50
2024-03-08T08:38:38.064Z,91.40
2024-03-08T08:41:06.625Z,91.20
2024-03-08T08:43:35.429Z,91.60
2024-03-08T08:46:03.617Z,91.60
2024-03-08T08:48:31.962Z,91.50
2024-03-08T08:50:59.162Z,90.90
2024-03-08T08:53:26.386Z,90.60
2024-03-08T08:55:54.737Z,90.80
2024-03-08T08:58:22.047Z,90.60
2024-03-08T09:00:49.432Z,89.80
2024-03-08T09:03:18.437Z,90.10
2024-03-08T09:05:46.380Z,88.90
2024-03-08T09:08:14.369Z,89.30
2024-03-08T09:10:41.882Z,87.90
2024-03-08T09:13:15.480Z,88.60
2024-03-08T09:15:45.723Z,89.10
2024-03-08T09:18:12.987Z,87.10
2024-03-08T09:20:43.190Z,86.60
2024-03-08T09:23:10.517Z,86.30
2024-03-08T09:25:37.839Z,86.60
2024-03-08T09:28:07.078Z,86.60
2024-03-08T09:30:35.728Z,86.60
2024-03-08T09:33:03.571Z,86.10
2024-03-08T09:35:31.365Z,85.20
2024-03-08T09:37:58.670Z,85.00
2024-03-08T09:40:26.954Z,85.10
2024-03-08T09:42:54.348Z,85.40
2024-03-08T09:45:26.289Z,85.50
2024-03-08T09:47:54.548Z,86.80
2024-03-08T09:50:22.984Z,86.20
2024-03-08T09:52:51.709Z,86.90
2024-03-08T09:55:23.931Z,86.80
2024-03-08T09:58:11.420Z,86.30
2024-03-08T10:00:39.054Z,85.30
2024-03-08T10:03:06.778Z,84.90
2024-03-08T10:05:35.079Z,84.30
2024-03-08T10:08:02.442Z,84.70
2024-03-08T10:10:29.998Z,83.20
2024-03-08T10:12:58.088Z,82.60
2024-03-08T10:15:25.561Z,82.20
2024-03-08T10:17:54.596Z,81.80
2024-03-08T10:20:22.364Z,81.80
2024-03-08T10:22:58.560Z,81.40
2024-03-08T10:25:36.007Z,80.90
2024-03-08T10:28:07.549Z,81.90
2024-03-08T10:30:34.812Z,81.20
2024-03-08T10:33:03.808Z,81.60
2024-03-08T10:35:32.396Z,82.20
2024-03-08T10:38:04.455Z,79.60
2024-03-08T10:40:31.990Z,80.50
2024-03-08T10:43:00.768Z,79.00
2024-03-08T10:45:39.066Z,79.70
2024-03-08T10:48:24.686Z,79.60
2024-03-08T10:50:54.502Z,78.40
2024-03-08T10:53:25.288Z,77.80
2024-03-08T10:55:55.007Z,77.90
2024-03-08T10:58:24.764Z,78.40
2024-03-08T11:00:52.162Z,77.20
2024-03-08T11:03:41.298Z,77.60
2024-03-08T11:06:10.819Z,76.20
2024-03-08T11:08:38.164Z,74.60
2024-03-08T11:11:06.038Z,75.00
2024-03-08T11:13:38.414Z,75.20
2024-03-08T11:16:11.219Z,69.20
2024-03-08T11:18:39.776Z,65.50
2024-03-08T11:21:14.170Z,71.10
2024-03-08T11:23:41.856Z,71.90
2024-03-08T11:26:22.160Z,71.60
2024-03-08T11:28:49.552Z,71.00
2024-03-08T11:31:22.778Z,71.50
2024-03-08T11:33:50.675Z,71.60
2024-03-08T11:36:25.766Z,70.00
2024-03-08T11:38:55.527Z,68.30
2024-03-08T11:41:24.674Z,66.70
2024-03-08T11:44:10.052Z,67.20
2024-03-08T11:46:37.448Z,67.80
2024-03-08T11:49:05.000Z,67.70
2024-03-08T11:51:34.008Z,68.00
2024-03-08T11:54:01.348Z,67.30
2024-03-08T11:56:29.186Z,65.80
2024-03-08T11:58:59.083Z,64.20
2024-03-08T12:01:29.615Z,65.20
2024-03-08T12:04:00.453Z,66.60
2024-03-08T12:06:38.959Z,65.20
2024-03-08T12:09:10.879Z,63.50
2024-03-08T12:11:39.379Z,62.90
2024-03-08T12:14:08.279Z,62.60
2024-03-08T12:16:39.091Z,54.80
2024-03-08T12:19:07.206Z,50.90
2024-03-08T12:21:35.987Z,48.50
2024-03-08T12:24:11.221Z,47.60
2024-03-08T12:26:40.006Z,45.20
2024-03-08T12:29:24.404Z,46.20
2024-03-08T12:31:56.779Z,46.60
2024-03-08T12:34:24.242Z,45.00
2024-03-08T12:37:00.385Z,44.30
2024-03-08T12:39:28.779Z,44.30
2024-03-08T12:41:58.618Z,43.90
2024-03-08T12:44:27.622Z,43.80
2024-03-08T12:46:55.446Z,44.10
2024-03-08T12:49:24.075Z,44.70
2024-03-08T12:51:54.357Z,45.40
2024-03-08T12:54:25.220Z,46.80
2024-03-08T12:56:55.295Z,46.10
2024-03-08T12:59:26.093Z,45.40
2024-03-08T13:01:55.555Z,46.80
2024-03-08T13:04:23.246Z,46.50
2024-03-08T13:06:54.845Z,44.70
2024-03-08T13:09:23.898Z,44.90
2024-03-08T13:11:51.486Z,45.10
2024-03-08T13:14:18.820Z,44.80
2024-03-08T13:16:51.170Z,44.20
2024-03-08T13:19:18.659Z,44.50
2024-03-08T13:21:50.946Z,44.10
2024-03-08T13:24:20.226Z,44.40
2024-03-08T13:26:49.238Z,42.70
2024-03-08T13:29:17.542Z,42.70
2024-03-08T13:31:44.849Z,44.30
2024-03-08T13:34:12.863Z,44.20
2024-03-08T13:36:45.742Z,43.90
2024-03-08T13:39:22.437Z,44.50
2024-03-08T13:41:49.734Z,44.00
2024-03-08T13:44:18.581Z,46.20
2024-03-08T13:46:51.074Z,44.50
2024-03-08T13:49:20.047Z,42.70
2024-03-08T13:51:48.305Z,42.50
2024-03-08T13:54:17.684Z,42.80
2024-03-08T13:56:46.196Z,45.00
2024-03-08T13:59:13.617Z,43.90
2024-03-08T14:01:40.963Z,43.20
2024-03-08T14:04:09.908Z,43.00
2024-03-08T14:09:09.847Z,44.30
2024-03-08T14:11:37.087Z,42.80
2024-03-08T14:14:04.406Z,41.60
2024-03-08T14:16:31.765Z,41.30
2024-03-08T14:19:04.849Z,40.40
2024-03-08T14:21:32.229Z,40.20
2024-03-08T14:23:59.565Z,40.30
2024-03-08T14:26:27.522Z,40.60
2024-03-08T14:28:55.825Z,39.80
2024-03-08T14:31:26.878Z,40.50
2024-03-08T14:33:54.290Z,41.20
2024-03-08T14:36:21.819Z,41.60
2024-03-08T14:38:48.998Z,41.40
2024-03-08T14:41:16.584Z,40.60
2024-03-08T14:43:47.191Z,40.90
2024-03-08T14:46:18.754Z,41.10
2024-03-08T14:48:49.440Z,40.70
2024-03-08T14:51:21.180Z,40.30
2024-03-08T14:53:51.075Z,39.60
2024-03-08T14:56:18.469Z,40.60
2024-03-08T14:58:50.748Z,41.10
2024-03-08T15:01:26.214Z,40.80
2024-03-08T15:03:53.400Z,42.70
2024-03-08T15:06:22.468Z,42.80
2024-03-08T15:08:49.999Z,45.50
2024-03-08T15:11:23.486Z,49.50
2024-03-08T15:13:54.606Z,50.40
2024-03-08T15:16:24.782Z,50.90
2024-03-08T15:18:53.287Z,48.80
2024-03-08T15:21:21.176Z,48.10
2024-03-08T15:23:53.669Z,44.50
2024-03-08T15:26:21.600Z,42.20
2024-03-08T15:28:53.461Z,43.10
2024-03-08T15:31:23.584Z,42.20
2024-03-08T15:33:54.247Z,42.70
2024-03-08T15:36:22.977Z,44.40
2024-03-08T15:38:52.954Z,47.70
2024-03-08T15:41:22.354Z,50.70
2024-03-08T15:43:51.350Z,52.90
2024-03-08T15:46:20.242Z,54.50
2024-03-08T15:48:48.372Z,54.70
2024-03-08T15:51:18.939Z,53.60
2024-03-08T15:53:54.310Z,54.80
2024-03-08T15:56:25.441Z,55.40
2024-03-08T15:58:54.727Z,53.40
2024-03-08T16:01:24.450Z,52.60
2024-03-08T16:03:52.406Z,51.30
2024-03-08T16:06:23.031Z,50.90
2024-03-08T16:08:51.008Z,52.40
2024-03-08T16:11:20.400Z,55.00
2024-03-08T16:13:48.043Z,56.40
2024-03-08T16:16:15.572Z,57.80
2024-03-08T16:18:43.320Z,57.50
2024-03-08T16:21:10.538Z,57.90
2024-03-08T16:23:39.881Z,58.90
2024-03-08T16:26:07.785Z,59.40
2024-03-08T16:28:43.169Z,59.40
2024-03-08T16:31:12.429Z,60.60
2024-03-08T16:33:40.602Z,60.00
2024-03-08T16:36:08.678Z,60.40
2024-03-08T16:38:38.465Z,60.70
2024-03-08T16:41:07.522Z,61.30
2024-03-08T16:43:35.032Z,61.60
2024-03-08T16:46:05.503Z,61.70
2024-03-08T16:48:33.810Z,61.50
2024-03-08T16:51:01.389Z,62.00
2024-03-08T16:53:29.707Z,62.30
2024-03-08T16:55:58.909Z,62.30
2024-03-08T16:58:26.884Z,62.10
2024-03-08T17:00:54.224Z,62.60
2024-03-08T17:03:22.419Z,62.90
2024-03-08T17:05:55.490Z,62.90
2024-03-08T17:08:24.079Z,63.00
2024-03-08T17:10:53.044Z,63.40
2024-03-08T17:13:20.703Z,63.50
2024-03-08T17:15:50.274Z,63.60
2024-03-08T17:18:18.246Z,63.50
2024-03-08T17:20:46.119Z,63.30
2024-03-08T17:23:15.207Z,63.20
2024-03-08T17:25:44.097Z,63.20
2024-03-08T17:28:13.476Z,63.20
2024-03-08T17:30:42.585Z,63.30
2024-03-08T17:33:20.384Z,63.30
2024-03-08T17:35:48.796Z,64.00
2024-03-08T17:38:19.842Z,67.20
2024-03-08T17:40:47.408Z,66.30
2024-03-08T17:43:15.416Z,66.30
2024-03-08T17:45:47.597Z,66.90
2024-03-08T17:48:18.438Z,68.60
2024-03-08T17:50:52.579Z,68.50
2024-03-08T17:53:20.487Z,68.80
2024-03-08T17:55:51.875Z,68.90
2024-03-08T17:58:20.208Z,69.10
2024-03-08T18:00:48.365Z,69.00
2024-03-08T18:03:20.054Z,68.80
2024-03-08T18:05:47.494Z,69.10
2024-03-08T18:08:17.335Z,69.90
2024-03-08T18:10:44.669Z,69.10
2024-03-08T18:13:15.345Z,69.30
2024-03-08T18:15:49.547Z,69.10
2024-03-08T18:18:19.106Z,69.50
2024-03-08T18:20:49.874Z,69.20
2024-03-08T18:23:22.791Z,69.50
2024-03-08T18:25:51.944Z,70.10
2024-03-08T18:28:22.656Z,70.20
2024-03-08T18:30:51.080Z,70.40
2024-03-08T18:33:19.658Z,70.60
2024-03-08T18:35:49.062Z,70.40
2024-03-08T18:38:24.162Z,70.60
2024-03-08T18:40:54.038Z,70.70
2024-03-08T18:43:30.501Z,71.50
2024-03-08T18:45:58.945Z,71.40
2024-03-08T18:48:30.962Z,72.00
2024-03-08T18:51:00.747Z,71.90
2024-03-08T18:53:33.972Z,72.60
2024-03-08T18:56:03.071Z,73.30
2024-03-08T18:58:42.295Z,74.60
2024-03-08T19:01:14.074Z,74.50
2024-03-08T19:03:42.813Z,75.10
2024-03-08T19:06:10.230Z,75.30
2024-03-08T19:08:38.290Z,75.80
2024-03-08T19:11:06.296Z,76.00
2024-03-08T19:13:34.859Z,77.30
2024-03-08T19:16:02.672Z,76.80
2024-03-08T19:18:31.324Z,77.10
2024-03-08T19:20:59.419Z,77.40
2024-03-08T19:23:28.064Z,77.70
2024-03-08T19:25:55.178Z,77.30
2024-03-08T19:28:23.109Z,77.40
2024-03-08T19:30:53.071Z,77.20
2024-03-08T19:33:22.250Z,77.00
2024-03-08T19:35:49.578Z,76.90
2024-03-08T19:38:17.272Z,76.70
2024-03-08T19:40:46.137Z,77.10
2024-03-08T19:43:17.402Z,77.50
2024-03-08T19:45:45.412Z,77.60
2024-03-08T19:48:22.597Z,77.90
2024-03-08T19:50:51.202Z,77.90
2024-03-08T19:53:19.542Z,77.80
2024-03-08T19:55:52.495Z,78.10
2024-03-08T19:58:22.102Z,78.30
2024-03-08T20:00:50.182Z,78.30
2024-03-08T20:03:23.510Z,78.00
2024-03-08T20:05:55.754Z,77.90
2024-03-08T20:08:35.226Z,78.00
2024-03-08T20:11:05.308Z,77.80
2024-03-08T20:13:36.347Z,77.70
2024-03-08T20:16:06.020Z,78.00
2024-03-08T20:18:34.084Z,78.70
2024-03-08T20:21:02.725Z,78.80
2024-03-08T20:23:31.122Z,78.60
2024-03-08T20:26:04.234Z,78.70
2024-03-08T20:28:35.398Z,78.80
2024-03-08T20:31:03.025Z,78.30
2024-03-08T20:33:33.456Z,78.80
2024-03-08T20:36:00.900Z,79.20
2024-03-08T20:38:28.835Z,78.90
2024-03-08T20:40:57.165Z,78.70
2024-03-08T20:43:29.741Z,78.30
2024-03-08T20:45:59.081Z,78.90
2024-03-08T20:48:26.485Z,78.90
2024-03-08T20:50:55.203Z,79.20
2024-03-08T20:53:25.289Z,79.70
2024-03-08T20:55:54.400Z,80.20
2024-03-08T20:58:24.431Z,80.50
2024-03-08T21:01:00.287Z,80.70
2024-03-08T21:03:28.807Z,80.30
2024-03-08T21:06:00.434Z,81.50
2024-03-08T21:08:29.007Z,80.90
2024-03-08T21:10:58.078Z,80.90
2024-03-08T21:13:27.117Z,81.40
2024-03-08T21:15:56.014Z,81.90
2024-03-08T21:18:26.924Z,82.00
2024-03-08T21:20:57.265Z,82.10
2024-03-08T21:23:26.864Z,82.50
2024-03-08T21:26:03.420Z,82.80
2024-03-08T21:28:31.318Z,82.60
2024-03-08T21:31:02.289Z,82.90
2024-03-08T21:33:30.586Z,83.50
2024-03-08T21:36:02.668Z,83.70
2024-03-08T21:38:30.545Z,83.70
2024-03-08T21:41:03.545Z,83.80
2024-03-08T21:43:36.435Z,83.90
2024-03-08T21:46:04.485Z,84.30
2024-03-08T21:48:36.228Z,84.40
2024-03-08T21:51:04.480Z,84.60
2024-03-08T21:53:35.540Z,85.30
2024-03-08T21:56:06.688Z,85.20
2024-03-08T21:58:34.861Z,85.50
2024-03-08T22:01:04.611Z,86.10
2024-03-08T22:03:33.024Z,86.20
2024-03-08T22:06:00.496Z,86.70
2024-03-08T22:08:28.399Z,87.10
2024-03-08T22:10:57.745Z,87.30
2024-03-08T22:13:25.691Z,87.60
2024-03-08T22:15:53.701Z,88.00
2024-03-08T22:18:21.269Z,88.00
2024-03-08T22:20:48.629Z,88.90
2024-03-08T22:23:18.158Z,88.30
2024-03-08T22:25:48.168Z,87.90
2024-03-08T22:28:16.522Z,87.80
2024-03-08T22:30:45.702Z,87.80
2024-03-08T22:33:13.250Z,87.70
2024-03-08T22:35:40.817Z,88.00
2024-03-08T22:38:10.520Z,88.50
2024-03-08T22:40:38.679Z,88.40
2024-03-08T22:43:08.254Z,87.50
2024-03-08T22:45:35.832Z,87.10
2024-03-08T22:48:05.335Z,87.90
2024-03-08T22:50:38.236Z,87.60
2024-03-08T22:53:06.958Z,87.80
2024-03-08T22:55:34.332Z,88.10
2024-03-08T22:58:02.915Z,88.60
2024-03-08T23:00:39.186Z,88.00
2024-03-08T23:03:12.030Z,89.10
2024-03-08T23:05:42.522Z,90.00
2024-03-08T23:08:10.234Z,90.00
2024-03-08T23:10:40.654Z,90.20
2024-03-08T23:13:11.283Z,89.90
2024-03-08T23:15:43.245Z,89.00
2024-03-08T23:18:13.868Z,88.90
2024-03-08T23:20:45.357Z,89.30
2024-03-08T23:23:13.433Z,89.90
2024-03-08T23:25:42.465Z,89.50
2024-03-08T23:28:16.540Z,89.50
2024-03-08T23:30:45.986Z,88.80
2024-03-08T23:33:16.059Z,88.80
2024-03-08T23:35:46.037Z,89.10
2024-03-08T23:38:15.664Z,90.40
2024-03-08T23:40:43.468Z,90.30
2024-03-08T23:43:10.881Z,90.20
2024-03-08T23:45:39.556Z,90.40
2024-03-08T23:48:07.908Z,90.00
2024-03-08T23:50:36.078Z,89.90
2024-03-08T23:53:08.188Z,89.60
2024-03-08T23:55:37.712Z,89.40
2024-03-08T23:58:13.697Z,88.90
